Time;durP1;ratioP1;P1;durP2;ratioP2;P2;SDS_P1;SDS_P2;PMS_P1;PMS_P2;Temp;Humidity;BMP_temperature;BMP_pressure;BME280_temperature;BME280_humidity;BME280_pressure;Samples;Min_cycle;Max_cycle;Signal;HPM_P1;HPM_P2
2022/08/09 00:02:05;;;;;;;1.37;1.27;;;;;;;;;;5072452;28;20429;-75
2022/08/09 00:04:31;;;;;;;1.70;1.60;;;;;;;;;;5053197;28;20464;-76
2022/08/09 00:06:57;;;;;;;2.40;2.20;;;;;;;;;;5067689;28;20422;-75
2022/08/09 00:09:23;;;;;;;1.90;1.90;;;;;;;;;;5058976;28;20490;-75
2022/08/09 00:11:49;;;;;;;1.40;1.40;;;;;;;;;;5072248;28;20933;-75
2022/08/09 00:14:15;;;;;;;1.40;1.30;;;;;;;;;;5072866;28;20487;-75
2022/08/09 00:16:41;;;;;;;12.43;1.67;;;;;;;;;;5073170;28;20421;-75
2022/08/09 00:19:08;;;;;;;1.33;1.23;;;;;;;;;;5068932;28;20468;-75
2022/08/09 00:21:34;;;;;;;1.40;1.20;;;;;;;;;;5070882;28;20490;-75
2022/08/09 00:24:00;;;;;;;1.23;1.10;;;;;;;;;;5072759;28;20422;-75
2022/08/09 00:26:26;;;;;;;1.50;1.40;;;;;;;;;;5070048;28;20429;-75
2022/08/09 00:28:52;;;;;;;6.83;1.40;;;;;;;;;;5063842;28;20425;-75
2022/08/09 00:31:18;;;;;;;2.83;1.10;;;;;;;;;;5070709;28;20437;-75
2022/08/09 00:33:44;;;;;;;0.80;0.80;;;;;;;;;;5071952;28;20472;-75
2022/08/09 00:36:10;;;;;;;2.37;2.27;;;;;;;;;;5072643;28;20525;-75
2022/08/09 00:38:36;;;;;;;1.00;1.00;;;;;;;;;;5069336;28;20469;-75
2022/08/09 00:41:02;;;;;;;1.23;1.13;;;;;;;;;;5056928;28;20458;-76
2022/08/09 00:43:30;;;;;;;3.57;1.13;;;;;;;;;;5052419;28;20441;-75
2022/08/09 00:45:56;;;;;;;3.80;1.50;;;;;;;;;;5052550;28;20422;-75
2022/08/09 00:48:22;;;;;;;1.47;1.30;;;;;;;;;;5054789;28;20848;-75
2022/08/09 00:50:48;;;;;;;1.00;1.00;;;;;;;;;;5071198;28;20425;-75
2022/08/09 00:53:14;;;;;;;1.80;1.30;;;;;;;;;;5071917;28;20467;-75
2022/08/09 00:55:40;;;;;;;0.83;0.83;;;;;;;;;;5070637;28;20425;-75
2022/08/09 00:58:06;;;;;;;1.00;1.00;;;;;;;;;;5072379;28;20909;-75
2022/08/09 01:00:33;;;;;;;1.40;1.33;;;;;;;;;;5062889;28;20580;-75
2022/08/09 01:03:09;;;;;;;1.10;1.10;;;;;;;;;;5052909;28;20436;-75
2022/08/09 01:05:38;;;;;;;1.40;1.40;;;;;;;;;;5070597;28;20799;-75
2022/08/09 01:08:08;;;;;;;1.30;1.20;;;;;;;;;;5071935;28;20429;-75
2022/08/09 01:10:41;;;;;;;1.20;1.10;;;;;;;;;;5072603;28;20809;-76
2022/08/09 01:13:13;;;;;;;1.80;0.77;;;;;;;;;;5070472;28;20777;-75
2022/08/09 01:15:43;;;;;;;1.07;0.97;;;;;;;;;;5053226;28;20512;-75
2022/08/09 01:18:11;;;;;;;1.40;1.40;;;;;;;;;;5052231;28;20438;-75
2022/08/09 01:20:57;;;;;;;1.30;1.30;;;;;;;;;;5072419;28;20481;-76
2022/08/09 01:23:33;;;;;;;1.80;1.70;;;;;;;;;;5060161;28;20789;-75
2022/08/09 01:26:03;;;;;;;1.63;1.60;;;;;;;;;;5070385;28;20934;-75
2022/08/09 01:28:30;;;;;;;0.80;0.80;;;;;;;;;;5069312;28;20433;-75
2022/08/09 01:30:57;;;;;;;1.40;1.40;;;;;;;;;;5067285;28;20961;-75
2022/08/09 01:33:24;;;;;;;11.80;1.20;;;;;;;;;;5071349;28;20440;-75
2022/08/09 01:35:53;;;;;;;1.60;1.60;;;;;;;;;;5071846;28;20912;-75
2022/08/09 01:38:20;;;;;;;1.87;1.40;;;;;;;;;;5074401;28;20432;-75
2022/08/09 01:40:49;;;;;;;1.57;1.57;;;;;;;;;;5059242;28;20567;-75
2022/08/09 01:43:15;;;;;;;1.70;1.70;;;;;;;;;;5054428;28;20430;-75
2022/08/09 01:45:41;;;;;;;1.17;1.17;;;;;;;;;;5056871;28;20520;-75
2022/08/09 01:48:09;;;;;;;1.40;1.40;;;;;;;;;;5055248;28;20433;-75
2022/08/09 01:50:35;;;;;;;1.43;1.40;;;;;;;;;;5054842;28;20952;-75
2022/08/09 01:53:01;;;;;;;3.27;1.17;;;;;;;;;;5054696;28;20430;-76
2022/08/09 01:55:29;;;;;;;1.33;1.33;;;;;;;;;;5064246;28;20457;-75
2022/08/09 01:57:55;;;;;;;9.20;2.37;;;;;;;;;;5056545;28;20993;-75
2022/08/09 02:00:21;;;;;;;1.57;1.57;;;;;;;;;;5061145;28;20489;-76
2022/08/09 02:02:50;;;;;;;1.23;1.23;;;;;;;;;;5074431;28;20457;-75
2022/08/09 02:05:19;;;;;;;1.60;1.60;;;;;;;;;;5074860;28;20438;-75
2022/08/09 02:07:53;;;;;;;1.73;1.63;;;;;;;;;;5063832;28;20926;-75
2022/08/09 02:10:21;;;;;;;1.73;1.47;;;;;;;;;;5055371;28;20440;-75
2022/08/09 02:12:47;;;;;;;0.93;0.93;;;;;;;;;;5055055;28;20434;-75
2022/08/09 02:15:16;;;;;;;2.00;1.17;;;;;;;;;;5072555;28;20512;-75
2022/08/09 02:17:43;;;;;;;2.03;1.30;;;;;;;;;;5073061;28;20467;-75
2022/08/09 02:20:09;;;;;;;1.27;1.27;;;;;;;;;;5074852;28;20496;-75
2022/08/09 02:22:37;;;;;;;1.50;1.40;;;;;;;;;;5075074;28;20526;-75
2022/08/09 02:25:12;;;;;;;1.77;1.67;;;;;;;;;;5073703;28;20539;-75
2022/08/09 02:27:39;;;;;;;1.23;1.23;;;;;;;;;;5036096;28;20411;-76
2022/08/09 02:30:06;;;;;;;2.10;1.10;;;;;;;;;;5055698;28;20430;-75
2022/08/09 02:32:33;;;;;;;6.90;1.30;;;;;;;;;;5053139;28;20444;-75
2022/08/09 02:35:02;;;;;;;2.50;1.40;;;;;;;;;;5054895;28;20768;-75
2022/08/09 02:37:30;;;;;;;0.90;0.90;;;;;;;;;;5053797;28;20458;-75
2022/08/09 02:39:59;;;;;;;1.53;1.43;;;;;;;;;;5066404;28;20481;-76
2022/08/09 02:42:30;;;;;;;1.43;1.27;;;;;;;;;;5074062;28;20430;-76
2022/08/09 02:45:00;;;;;;;2.57;1.27;;;;;;;;;;5074651;28;20459;-75
2022/08/09 02:47:28;;;;;;;1.17;1.17;;;;;;;;;;5073401;28;20409;-75
2022/08/09 02:50:02;;;;;;;1.47;1.37;;;;;;;;;;5072683;28;20428;-75
2022/08/09 02:52:31;;;;;;;2.73;1.30;;;;;;;;;;5074430;28;20822;-75
2022/08/09 02:54:58;;;;;;;2.30;1.20;;;;;;;;;;5072972;28;20504;-75
2022/08/09 02:57:25;;;;;;;0.90;0.90;;;;;;;;;;5060822;28;20491;-75
2022/08/09 02:59:52;;;;;;;2.93;1.40;;;;;;;;;;5054255;28;20909;-75
2022/08/09 03:02:19;;;;;;;1.50;1.37;;;;;;;;;;5053965;28;20906;-75
2022/08/09 03:04:45;;;;;;;2.20;1.10;;;;;;;;;;5055730;28;20434;-75
2022/08/09 03:07:12;;;;;;;0.83;0.83;;;;;;;;;;5054429;28;20781;-75
2022/08/09 03:09:38;;;;;;;1.13;1.13;;;;;;;;;;5054368;28;20562;-75
2022/08/09 03:12:05;;;;;;;8.10;1.30;;;;;;;;;;5055096;28;20427;-75
2022/08/09 03:14:31;;;;;;;1.20;1.20;;;;;;;;;;5052950;28;20457;-75
2022/08/09 03:16:58;;;;;;;1.10;1.10;;;;;;;;;;5054372;28;20805;-75
2022/08/09 03:19:24;;;;;;;1.50;1.50;;;;;;;;;;5064918;28;20481;-76
2022/08/09 03:21:51;;;;;;;0.97;0.97;;;;;;;;;;5070785;28;20440;-75
2022/08/09 03:24:17;;;;;;;1.00;1.00;;;;;;;;;;5070091;28;20457;-75
2022/08/09 03:26:46;;;;;;;1.10;1.10;;;;;;;;;;5054123;28;20776;-75
2022/08/09 03:29:13;;;;;;;1.37;1.10;;;;;;;;;;5053982;28;20488;-75
2022/08/09 03:31:40;;;;;;;1.10;1.10;;;;;;;;;;5054584;28;20484;-75
2022/08/09 03:34:06;;;;;;;2.47;1.10;;;;;;;;;;5054574;28;20434;-75
2022/08/09 03:36:33;;;;;;;1.30;1.30;;;;;;;;;;5053890;28;20772;-76
2022/08/09 03:38:59;;;;;;;0.90;0.90;;;;;;;;;;5057528;28;20469;-75
2022/08/09 03:41:25;;;;;;;1.13;1.10;;;;;;;;;;5073475;28;20429;-75
2022/08/09 03:43:51;;;;;;;1.00;1.00;;;;;;;;;;5072105;28;20913;-75
2022/08/09 03:46:17;;;;;;;0.80;0.80;;;;;;;;;;5073025;28;20750;-75
2022/08/09 03:48:44;;;;;;;4.27;1.20;;;;;;;;;;5072952;28;20420;-75
2022/08/09 03:51:11;;;;;;;2.63;1.33;;;;;;;;;;5072784;28;20940;-75
2022/08/09 03:53:37;;;;;;;1.50;1.50;;;;;;;;;;5058461;28;20466;-75
2022/08/09 03:56:04;;;;;;;1.40;1.40;;;;;;;;;;5051995;28;20852;-75
2022/08/09 03:58:30;;;;;;;6.67;1.23;;;;;;;;;;5064357;28;20444;-75
2022/08/09 04:00:56;;;;;;;3.37;1.33;;;;;;;;;;5072387;28;20468;-76
2022/08/09 04:03:23;;;;;;;3.43;1.20;;;;;;;;;;5070531;28;20940;-76
2022/08/09 04:05:49;;;;;;;4.00;1.10;;;;;;;;;;5073366;28;20421;-76
2022/08/09 04:08:15;;;;;;;0.93;0.93;;;;;;;;;;5071300;28;20432;-75
2022/08/09 04:10:41;;;;;;;2.40;1.50;;;;;;;;;;5073246;28;20520;-75
2022/08/09 04:13:10;;;;;;;1.27;1.17;;;;;;;;;;5061189;28;20472;-75
2022/08/09 04:15:37;;;;;;;6.63;1.30;;;;;;;;;;5050564;28;20926;-76
2022/08/09 04:18:04;;;;;;;1.03;1.03;;;;;;;;;;5051137;28;20418;-76
2022/08/09 04:20:30;;;;;;;1.10;1.10;;;;;;;;;;5055081;28;20486;-74
2022/08/09 04:22:57;;;;;;;0.80;0.80;;;;;;;;;;5072290;28;20413;-74
2022/08/09 04:25:23;;;;;;;1.60;1.50;;;;;;;;;;5068379;28;20420;-74
2022/08/09 04:27:49;;;;;;;1.90;1.67;;;;;;;;;;5071529;28;20516;-74
2022/08/09 04:30:15;;;;;;;3.30;1.10;;;;;;;;;;5060019;28;20419;-74
2022/08/09 04:32:41;;;;;;;1.07;1.07;;;;;;;;;;5052010;28;20430;-73
2022/08/09 04:35:09;;;;;;;1.73;1.63;;;;;;;;;;5054358;28;20552;-74
2022/08/09 04:37:35;;;;;;;2.17;1.77;;;;;;;;;;5052773;28;20430;-74
2022/08/09 04:40:01;;;;;;;2.50;1.15;;;;;;;;;;5065103;28;20481;-73
2022/08/09 04:42:31;;;;;;;4.63;1.47;;;;;;;;;;5070651;28;20179;-74
2022/08/09 04:44:57;;;;;;;1.80;1.77;;;;;;;;;;5071849;28;20896;-73
2022/08/09 04:47:24;;;;;;;1.20;1.20;;;;;;;;;;5070464;28;20978;-73
2022/08/09 04:49:50;;;;;;;1.43;1.33;;;;;;;;;;5056202;28;20438;-74
2022/08/09 04:52:16;;;;;;;1.20;1.20;;;;;;;;;;5051921;28;20867;-73
2022/08/09 04:54:42;;;;;;;1.13;1.13;;;;;;;;;;5065298;28;20442;-73
2022/08/09 04:57:08;;;;;;;9.93;1.30;;;;;;;;;;5070888;28;20508;-73
2022/08/09 04:59:34;;;;;;;3.27;1.60;;;;;;;;;;5063375;28;20470;-74
2022/08/09 05:02:01;;;;;;;1.43;1.43;;;;;;;;;;5052085;28;20442;-73
2022/08/09 05:04:27;;;;;;;1.17;1.17;;;;;;;;;;5052639;28;20987;-73
2022/08/09 05:06:53;;;;;;;9.73;1.37;;;;;;;;;;5055120;28;20406;-73
2022/08/09 05:09:20;;;;;;;4.40;1.50;;;;;;;;;;5072912;28;20486;-74
2022/08/09 05:11:46;;;;;;;1.37;1.37;;;;;;;;;;5075930;28;20639;-73
2022/08/09 05:14:12;;;;;;;4.73;1.50;;;;;;;;;;5076315;28;20520;-73
2022/08/09 05:16:38;;;;;;;1.47;1.37;;;;;;;;;;5074825;28;20509;-73
2022/08/09 05:19:04;;;;;;;1.63;1.20;;;;;;;;;;5072809;28;20461;-73
2022/08/09 05:21:30;;;;;;;1.40;1.30;;;;;;;;;;5076114;28;20464;-77
2022/08/09 05:23:56;;;;;;;2.10;1.37;;;;;;;;;;5073398;28;20416;-76
2022/08/09 05:26:22;;;;;;;3.00;1.27;;;;;;;;;;5074644;28;20819;-74
2022/08/09 05:28:48;;;;;;;1.10;1.10;;;;;;;;;;5074636;28;20595;-75
2022/08/09 05:31:14;;;;;;;2.23;2.13;;;;;;;;;;5065679;28;20958;-77
2022/08/09 05:33:40;;;;;;;2.50;1.57;;;;;;;;;;5056685;28;20780;-75
2022/08/09 05:36:06;;;;;;;1.13;1.13;;;;;;;;;;5055088;28;20437;-77
2022/08/09 05:38:31;;;;;;;1.53;1.30;;;;;;;;;;5057172;28;20892;-74
2022/08/09 05:40:58;;;;;;;2.10;1.43;;;;;;;;;;5064095;28;20442;-77
2022/08/09 05:43:23;;;;;;;2.40;1.17;;;;;;;;;;5061972;28;20434;-77
2022/08/09 05:45:50;;;;;;;4.93;1.30;;;;;;;;;;5065372;28;20490;-78
2022/08/09 05:48:15;;;;;;;2.17;1.30;;;;;;;;;;5060598;28;20464;-75
2022/08/09 05:50:43;;;;;;;1.10;1.10;;;;;;;;;;5055623;28;20414;-73
2022/08/09 05:53:09;;;;;;;1.33;1.33;;;;;;;;;;5055019;28;20509;-77
2022/08/09 05:55:35;;;;;;;2.30;1.20;;;;;;;;;;5056567;28;20881;-78
2022/08/09 05:58:01;;;;;;;1.03;1.03;;;;;;;;;;5075037;28;20534;-79
2022/08/09 06:00:28;;;;;;;2.30;1.43;;;;;;;;;;5060897;28;20477;-75
2022/08/09 06:02:58;;;;;;;1.33;1.33;;;;;;;;;;5054794;28;20456;-74
2022/08/09 06:05:25;;;;;;;6.13;1.13;;;;;;;;;;5056257;28;20775;-73
2022/08/09 06:07:51;;;;;;;1.33;1.17;;;;;;;;;;5054355;28;20509;-70
2022/08/09 06:10:17;;;;;;;1.00;1.00;;;;;;;;;;5054283;28;20460;-72
2022/08/09 06:12:43;;;;;;;7.73;1.50;;;;;;;;;;5055134;28;20187;-72
2022/08/09 06:15:09;;;;;;;1.50;1.33;;;;;;;;;;5056548;28;20522;-74
2022/08/09 06:17:35;;;;;;;1.40;1.40;;;;;;;;;;5054459;28;20184;-73
2022/08/09 06:20:01;;;;;;;1.20;1.10;;;;;;;;;;5055139;28;20485;-70
2022/08/09 06:22:27;;;;;;;7.83;1.17;;;;;;;;;;5058130;28;20490;-70
2022/08/09 06:24:53;;;;;;;5.33;1.30;;;;;;;;;;5053879;28;20434;-73
2022/08/09 06:27:19;;;;;;;3.60;1.33;;;;;;;;;;5055316;28;20176;-72
2022/08/09 06:29:45;;;;;;;1.60;1.50;;;;;;;;;;5055143;28;20426;-72
2022/08/09 06:32:11;;;;;;;1.83;1.30;;;;;;;;;;5054297;28;20418;-73
2022/08/09 06:34:37;;;;;;;1.73;1.60;;;;;;;;;;5055218;28;20420;-73
2022/08/09 06:37:03;;;;;;;2.87;1.27;;;;;;;;;;5055114;28;20768;-73
2022/08/09 06:39:30;;;;;;;1.43;1.30;;;;;;;;;;5055105;28;20466;-74
2022/08/09 06:41:56;;;;;;;3.00;1.20;;;;;;;;;;5055666;28;20438;-72
2022/08/09 06:44:22;;;;;;;5.30;1.30;;;;;;;;;;5054806;28;20432;-73
2022/08/09 06:46:49;;;;;;;1.70;1.40;;;;;;;;;;5049466;28;20794;-72
2022/08/09 06:49:16;;;;;;;3.43;1.27;;;;;;;;;;5054329;28;20469;-73
2022/08/09 06:51:41;;;;;;;1.27;1.17;;;;;;;;;;5054772;28;20426;-74
2022/08/09 06:54:07;;;;;;;1.70;1.60;;;;;;;;;;5071155;28;20535;-71
2022/08/09 06:56:33;;;;;;;1.30;1.30;;;;;;;;;;5071181;28;20441;-72
2022/08/09 06:58:59;;;;;;;6.40;1.83;;;;;;;;;;5053885;28;20547;-72
2022/08/09 07:01:25;;;;;;;1.33;1.33;;;;;;;;;;5054994;28;20188;-72
2022/08/09 07:03:51;;;;;;;1.73;1.27;;;;;;;;;;5053518;28;20838;-73
2022/08/09 07:06:17;;;;;;;3.80;1.40;;;;;;;;;;5054442;28;20966;-72
2022/08/09 07:08:43;;;;;;;6.90;1.47;;;;;;;;;;5053768;28;20682;-72
2022/08/09 07:11:10;;;;;;;1.20;1.20;;;;;;;;;;5054625;28;20687;-72
2022/08/09 07:13:36;;;;;;;1.40;1.30;;;;;;;;;;5066580;28;20190;-71
2022/08/09 07:16:02;;;;;;;1.30;1.30;;;;;;;;;;5074373;28;20406;-73
2022/08/09 07:18:28;;;;;;;2.13;1.27;;;;;;;;;;5061812;28;20184;-73
2022/08/09 07:20:54;;;;;;;1.37;1.37;;;;;;;;;;5052702;28;20492;-73
2022/08/09 07:23:20;;;;;;;3.27;1.20;;;;;;;;;;5053892;28;20430;-73
2022/08/09 07:25:49;;;;;;;1.20;1.20;;;;;;;;;;5054122;28;20427;-73
2022/08/09 07:28:15;;;;;;;3.73;1.20;;;;;;;;;;5055096;28;20509;-73
2022/08/09 07:30:41;;;;;;;1.33;1.33;;;;;;;;;;5053184;28;20521;-73
2022/08/09 07:33:07;;;;;;;1.50;1.50;;;;;;;;;;5056447;28;20430;-73
2022/08/09 07:35:33;;;;;;;5.80;1.60;;;;;;;;;;5053916;28;20434;-74
2022/08/09 07:37:59;;;;;;;1.50;1.50;;;;;;;;;;5053988;28;20911;-74
2022/08/09 07:40:25;;;;;;;1.30;1.20;;;;;;;;;;5053949;28;20683;-74
2022/08/09 07:42:55;;;;;;;9.00;1.20;;;;;;;;;;5053398;28;20441;-74
2022/08/09 07:45:25;;;;;;;3.00;1.20;;;;;;;;;;5066275;28;20438;-73
2022/08/09 07:47:52;;;;;;;6.37;1.40;;;;;;;;;;5056091;28;20943;-73
2022/08/09 07:50:19;;;;;;;1.80;1.47;;;;;;;;;;5053138;28;20418;-74
2022/08/09 07:52:45;;;;;;;1.97;1.97;;;;;;;;;;5052901;28;20470;-74
2022/08/09 07:55:11;;;;;;;3.90;1.50;;;;;;;;;;5053168;28;20485;-72
2022/08/09 07:57:37;;;;;;;1.37;1.27;;;;;;;;;;5053005;28;20429;-73
2022/08/09 08:00:04;;;;;;;10.40;1.77;;;;;;;;;;5053243;28;20847;-72
2022/08/09 08:02:30;;;;;;;6.40;2.13;;;;;;;;;;5052449;28;20426;-74
2022/08/09 08:04:56;;;;;;;1.57;1.50;;;;;;;;;;5053012;28;20422;-73
2022/08/09 08:07:22;;;;;;;1.23;1.23;;;;;;;;;;5065686;28;20267;-73
2022/08/09 08:09:48;;;;;;;4.50;1.53;;;;;;;;;;5073237;28;20178;-73
2022/08/09 08:12:14;;;;;;;2.70;1.60;;;;;;;;;;5065743;28;20434;-72
2022/08/09 08:14:40;;;;;;;1.57;1.57;;;;;;;;;;5053172;28;20910;-71
2022/08/09 08:17:05;;;;;;;1.20;1.20;;;;;;;;;;5052770;28;20501;-73
2022/08/09 08:19:31;;;;;;;1.40;1.30;;;;;;;;;;5053608;28;20477;-72
2022/08/09 08:21:57;;;;;;;1.30;1.30;;;;;;;;;;5062861;28;20806;-73
2022/08/09 08:24:23;;;;;;;1.73;1.63;;;;;;;;;;5062350;28;20504;-72
2022/08/09 08:26:49;;;;;;;1.60;1.60;;;;;;;;;;5073125;28;20513;-73
2022/08/09 08:29:18;;;;;;;1.60;1.50;;;;;;;;;;5073143;28;20538;-71
2022/08/09 08:31:44;;;;;;;2.93;1.63;;;;;;;;;;5070296;28;20422;-72
2022/08/09 08:34:10;;;;;;;1.57;1.57;;;;;;;;;;5070560;28;20432;-71
2022/08/09 08:36:36;;;;;;;2.03;2.03;;;;;;;;;;5072235;28;20409;-74
2022/08/09 08:39:02;;;;;;;1.43;1.43;;;;;;;;;;5059873;28;20469;-74
2022/08/09 08:41:28;;;;;;;1.30;1.30;;;;;;;;;;5051298;28;20441;-73
2022/08/09 08:43:54;;;;;;;1.50;1.50;;;;;;;;;;5051943;28;20431;-72
2022/08/09 08:46:24;;;;;;;1.67;1.67;;;;;;;;;;5052075;28;20560;-71
2022/08/09 08:48:50;;;;;;;5.13;2.00;;;;;;;;;;5052606;28;20504;-72
2022/08/09 08:51:17;;;;;;;1.40;1.40;;;;;;;;;;5052533;28;20414;-72
2022/08/09 08:53:43;;;;;;;1.50;1.43;;;;;;;;;;5052484;28;20851;-70
2022/08/09 08:56:09;;;;;;;1.30;1.30;;;;;;;;;;5052730;28;20964;-72
2022/08/09 08:58:35;;;;;;;2.13;1.37;;;;;;;;;;5052612;28;20410;-72
2022/08/09 09:01:02;;;;;;;9.43;1.90;;;;;;;;;;5052609;28;20426;-73
2022/08/09 09:03:33;;;;;;;5.43;1.63;;;;;;;;;;5051929;28;20764;-73
2022/08/09 09:06:00;;;;;;;1.57;1.47;;;;;;;;;;5052551;28;20433;-73
2022/08/09 09:08:28;;;;;;;1.73;1.73;;;;;;;;;;5052581;28;20434;-73
2022/08/09 09:10:54;;;;;;;2.57;2.47;;;;;;;;;;5052538;28;20471;-72
2022/08/09 09:13:20;;;;;;;1.63;1.53;;;;;;;;;;5052203;28;20422;-72
2022/08/09 09:15:46;;;;;;;1.53;1.43;;;;;;;;;;5052618;28;20827;-72
2022/08/09 09:18:14;;;;;;;17.13;1.50;;;;;;;;;;5052135;28;20415;-71
2022/08/09 09:20:42;;;;;;;2.73;1.10;;;;;;;;;;5052353;28;20482;-72
2022/08/09 09:23:08;;;;;;;11.30;1.93;;;;;;;;;;5051985;28;20433;-73
2022/08/09 09:25:40;;;;;;;4.13;1.60;;;;;;;;;;5052606;28;20894;-72
2022/08/09 09:28:07;;;;;;;1.67;1.50;;;;;;;;;;5051181;28;20492;-72
2022/08/09 09:30:34;;;;;;;4.87;2.20;;;;;;;;;;5052500;28;20560;-72
2022/08/09 09:33:04;;;;;;;5.93;1.53;;;;;;;;;;5051734;28;20426;-71
2022/08/09 09:35:30;;;;;;;2.97;1.60;;;;;;;;;;5052172;28;20446;-71
2022/08/09 09:37:56;;;;;;;1.60;1.43;;;;;;;;;;5049536;28;20523;-72
2022/08/09 09:40:39;;;;;;;1.50;1.50;;;;;;;;;;5051181;28;20478;-73
2022/08/09 09:43:06;;;;;;;1.43;1.43;;;;;;;;;;5051998;28;20411;-72
2022/08/09 09:45:46;;;;;;;4.13;1.93;;;;;;;;;;5052210;28;20480;-73
2022/08/09 09:48:12;;;;;;;2.60;1.37;;;;;;;;;;5050650;28;20463;-72
2022/08/09 09:50:42;;;;;;;8.23;1.90;;;;;;;;;;5052109;28;20414;-72
2022/08/09 09:53:14;;;;;;;1.97;1.97;;;;;;;;;;5053612;28;20415;-71
2022/08/09 09:55:55;;;;;;;1.63;1.27;;;;;;;;;;5055909;28;20894;-72
2022/08/09 09:58:21;;;;;;;1.67;1.67;;;;;;;;;;5055841;28;20417;-73
2022/08/09 10:00:51;;;;;;;2.70;2.07;;;;;;;;;;5055595;28;21045;-72
2022/08/09 10:03:17;;;;;;;4.53;3.10;;;;;;;;;;5055078;28;20506;-72
2022/08/09 10:06:00;;;;;;;3.03;1.43;;;;;;;;;;5055770;28;20415;-72
2022/08/09 10:08:26;;;;;;;1.30;1.30;;;;;;;;;;5051759;28;20433;-73
2022/08/09 10:10:51;;;;;;;1.37;1.27;;;;;;;;;;5054996;28;20415;-73
2022/08/09 10:13:17;;;;;;;1.17;1.00;;;;;;;;;;5053936;28;20445;-72
2022/08/09 10:15:48;;;;;;;4.83;1.47;;;;;;;;;;5055601;28;20938;-72
2022/08/09 10:18:14;;;;;;;2.00;1.90;;;;;;;;;;5054203;28;20410;-72
2022/08/09 10:20:40;;;;;;;5.33;2.00;;;;;;;;;;5055297;28;20489;-72
2022/08/09 10:23:16;;;;;;;9.20;1.50;;;;;;;;;;5054968;28;20446;-71
2022/08/09 10:25:43;;;;;;;4.03;1.50;;;;;;;;;;5055323;28;20461;-72
2022/08/09 10:28:10;;;;;;;2.03;1.70;;;;;;;;;;5055259;28;20414;-70
2022/08/09 10:30:36;;;;;;;2.37;1.30;;;;;;;;;;5054010;28;20930;-73
2022/08/09 10:33:03;;;;;;;7.23;1.70;;;;;;;;;;5054481;28;20421;-72
2022/08/09 10:35:29;;;;;;;2.10;2.00;;;;;;;;;;5055079;28;20557;-72
2022/08/09 10:37:56;;;;;;;3.33;1.60;;;;;;;;;;5055040;28;20913;-71
2022/08/09 10:40:22;;;;;;;4.20;1.67;;;;;;;;;;5054985;28;20564;-72
2022/08/09 10:42:48;;;;;;;1.30;1.30;;;;;;;;;;5054740;28;20410;-71
2022/08/09 10:45:14;;;;;;;2.70;2.50;;;;;;;;;;5054859;28;20410;-72
2022/08/09 10:47:47;;;;;;;3.20;2.10;;;;;;;;;;5054568;28;20418;-72
2022/08/09 10:50:21;;;;;;;1.10;1.10;;;;;;;;;;5054762;28;20776;-72
2022/08/09 10:53:11;;;;;;;3.70;1.40;;;;;;;;;;5054454;28;20918;-72
2022/08/09 10:55:37;;;;;;;2.00;1.90;;;;;;;;;;5053399;28;20478;-71
2022/08/09 10:58:04;;;;;;;2.87;1.80;;;;;;;;;;5054587;28;20415;-71
2022/08/09 11:00:32;;;;;;;2.77;1.83;;;;;;;;;;5054413;28;20477;-71
2022/08/09 11:02:59;;;;;;;1.53;1.40;;;;;;;;;;5053913;28;20500;-73
2022/08/09 11:05:26;;;;;;;3.23;1.60;;;;;;;;;;5054584;28;20434;-72
2022/08/09 11:07:52;;;;;;;10.50;1.90;;;;;;;;;;5054708;28;20472;-72
2022/08/09 11:10:51;;;;;;;4.03;1.63;;;;;;;;;;5054553;28;20426;-72
2022/08/09 11:13:18;;;;;;;2.00;1.90;;;;;;;;;;5054172;28;20443;-72
2022/08/09 11:15:45;;;;;;;6.87;2.00;;;;;;;;;;5054363;28;20509;-73
2022/08/09 11:18:31;;;;;;;2.53;1.97;;;;;;;;;;5052722;28;20449;-72
2022/08/09 11:20:57;;;;;;;5.40;2.13;;;;;;;;;;5053985;28;20882;-72
2022/08/09 11:23:23;;;;;;;5.63;1.93;;;;;;;;;;5053907;28;20421;-70
2022/08/09 11:25:49;;;;;;;5.37;1.60;;;;;;;;;;5054312;28;20415;-72
2022/08/09 11:28:27;;;;;;;2.03;1.47;;;;;;;;;;5054106;28;20418;-71
2022/08/09 11:30:53;;;;;;;1.90;1.40;;;;;;;;;;5054024;28;20467;-71
2022/08/09 11:33:19;;;;;;;1.70;1.60;;;;;;;;;;5053289;28;20406;-72
2022/08/09 11:35:58;;;;;;;2.77;1.23;;;;;;;;;;5053998;28;20517;-71
2022/08/09 11:38:24;;;;;;;1.50;1.50;;;;;;;;;;5053858;28;20433;-72
2022/08/09 11:40:51;;;;;;;5.27;1.70;;;;;;;;;;5053700;28;20897;-72
2022/08/09 11:43:36;;;;;;;1.10;1.10;;;;;;;;;;5053524;28;20180;-72
2022/08/09 11:46:04;;;;;;;1.60;1.60;;;;;;;;;;5053413;28;20414;-72
2022/08/09 11:48:31;;;;;;;3.70;1.50;;;;;;;;;;5053786;28;20422;-72
2022/08/09 11:50:57;;;;;;;4.00;2.17;;;;;;;;;;5053560;28;20446;-72
2022/08/09 11:53:23;;;;;;;1.90;1.43;;;;;;;;;;5053096;28;20423;-72
2022/08/09 11:55:50;;;;;;;3.70;1.47;;;;;;;;;;5053483;28;20433;-72
2022/08/09 11:58:16;;;;;;;1.07;1.07;;;;;;;;;;5052282;28;20233;-70
2022/08/09 12:00:49;;;;;;;2.93;1.13;;;;;;;;;;5053244;28;20478;-70
2022/08/09 12:03:18;;;;;;;5.67;1.60;;;;;;;;;;5052905;28;20302;-71
2022/08/09 12:05:44;;;;;;;3.23;1.10;;;;;;;;;;5053404;28;20436;-71
2022/08/09 12:08:11;;;;;;;0.93;0.93;;;;;;;;;;5053400;28;20513;-72
2022/08/09 12:10:42;;;;;;;2.33;0.93;;;;;;;;;;5053524;28;20477;-71
2022/08/09 12:13:08;;;;;;;7.00;1.47;;;;;;;;;;5052972;28;20464;-71
2022/08/09 12:15:34;;;;;;;4.33;0.90;;;;;;;;;;5052838;28;20430;-70
2022/08/09 12:18:00;;;;;;;1.70;1.60;;;;;;;;;;5052961;28;20407;-72
2022/08/09 12:20:27;;;;;;;1.93;1.50;;;;;;;;;;5053151;28;20834;-70
2022/08/09 12:22:56;;;;;;;1.40;1.40;;;;;;;;;;5052655;28;20418;-71
2022/08/09 12:25:22;;;;;;;1.50;1.50;;;;;;;;;;5053102;28;20497;-72
2022/08/09 12:28:07;;;;;;;1.23;1.23;;;;;;;;;;5053166;28;20422;-73
2022/08/09 12:30:33;;;;;;;2.20;1.50;;;;;;;;;;5053110;28;20416;-72
2022/08/09 12:33:02;;;;;;;2.67;1.10;;;;;;;;;;5052239;28;20541;-71
2022/08/09 12:35:28;;;;;;;1.10;1.10;;;;;;;;;;5052963;28;20425;-70
2022/08/09 12:37:54;;;;;;;1.10;1.10;;;;;;;;;;5052964;28;20422;-71
2022/08/09 12:40:25;;;;;;;1.30;1.30;;;;;;;;;;5052849;28;20575;-72
2022/08/09 12:42:52;;;;;;;1.20;1.03;;;;;;;;;;5052748;28;20517;-73
2022/08/09 12:45:19;;;;;;;1.50;1.30;;;;;;;;;;5051541;28;20430;-71
2022/08/09 12:47:45;;;;;;;4.97;1.20;;;;;;;;;;5052516;28;20433;-71
2022/08/09 12:50:17;;;;;;;3.70;1.20;;;;;;;;;;5052871;28;20782;-71
2022/08/09 12:52:44;;;;;;;1.30;1.30;;;;;;;;;;5052290;28;20995;-72
2022/08/09 12:55:10;;;;;;;0.90;0.90;;;;;;;;;;5052448;28;21005;-72
2022/08/09 12:57:36;;;;;;;0.90;0.90;;;;;;;;;;5052686;28;20458;-72
2022/08/09 13:00:16;;;;;;;1.67;1.40;;;;;;;;;;5052748;28;20867;-72
2022/08/09 13:02:47;;;;;;;4.03;1.57;;;;;;;;;;5052018;28;20409;-72
2022/08/09 13:05:13;;;;;;;4.50;2.03;;;;;;;;;;5052622;28;20418;-71
2022/08/09 13:07:39;;;;;;;1.00;1.00;;;;;;;;;;5052561;28;20425;-70
2022/08/09 13:10:05;;;;;;;4.63;1.53;;;;;;;;;;5052506;28;20270;-71
2022/08/09 13:12:31;;;;;;;1.43;1.20;;;;;;;;;;5052370;28;20429;-72
2022/08/09 13:15:07;;;;;;;1.00;1.00;;;;;;;;;;5052495;28;20411;-72
2022/08/09 13:17:33;;;;;;;1.47;1.30;;;;;;;;;;5052127;28;20426;-72
2022/08/09 13:19:59;;;;;;;2.93;1.07;;;;;;;;;;5052430;28;20553;-70
2022/08/09 13:22:26;;;;;;;2.50;1.43;;;;;;;;;;5050784;28;20440;-71
2022/08/09 13:24:52;;;;;;;1.07;1.07;;;;;;;;;;5051194;28;20480;-72
2022/08/09 13:27:31;;;;;;;1.10;1.10;;;;;;;;;;5052827;28;20430;-72
2022/08/09 13:29:58;;;;;;;1.77;1.67;;;;;;;;;;5056439;28;20188;-72
2022/08/09 13:32:25;;;;;;;2.10;1.90;;;;;;;;;;5055705;28;20899;-72
2022/08/09 13:34:51;;;;;;;1.10;1.00;;;;;;;;;;5056306;28;20414;-70
2022/08/09 13:37:17;;;;;;;9.40;1.40;;;;;;;;;;5054881;28;20414;-73
2022/08/09 13:39:43;;;;;;;1.20;1.13;;;;;;;;;;5056022;28;20481;-71
2022/08/09 13:42:14;;;;;;;1.00;1.00;;;;;;;;;;5055839;28;20418;-71
2022/08/09 13:44:41;;;;;;;2.10;1.10;;;;;;;;;;5056105;28;20407;-72
2022/08/09 13:47:10;;;;;;;2.83;1.60;;;;;;;;;;5055730;28;20406;-72
2022/08/09 13:49:36;;;;;;;1.30;1.20;;;;;;;;;;5056005;28;20489;-70
2022/08/09 13:52:03;;;;;;;4.43;1.47;;;;;;;;;;5054234;28;20426;-70
2022/08/09 13:54:29;;;;;;;1.00;1.00;;;;;;;;;;5055813;28;20454;-72
2022/08/09 13:56:55;;;;;;;1.13;1.13;;;;;;;;;;5055779;28;20433;-70
2022/08/09 13:59:21;;;;;;;1.17;1.17;;;;;;;;;;5055740;28;20465;-72
2022/08/09 14:01:47;;;;;;;2.93;1.40;;;;;;;;;;5054967;28;20176;-71
2022/08/09 14:04:13;;;;;;;11.13;1.37;;;;;;;;;;5055813;28;20846;-72
2022/08/09 14:06:39;;;;;;;1.13;1.13;;;;;;;;;;5055874;28;20417;-72
2022/08/09 14:09:06;;;;;;;1.70;1.53;;;;;;;;;;5054274;28;20199;-71
2022/08/09 14:11:32;;;;;;;1.40;1.30;;;;;;;;;;5055267;28;20438;-71
2022/08/09 14:13:58;;;;;;;1.00;1.00;;;;;;;;;;5055437;28;20544;-71
2022/08/09 14:16:26;;;;;;;1.13;1.13;;;;;;;;;;5055171;28;20442;-72
2022/08/09 14:18:52;;;;;;;0.93;0.93;;;;;;;;;;5055474;28;20655;-72
2022/08/09 14:21:22;;;;;;;1.23;1.20;;;;;;;;;;5055024;28;20462;-72
2022/08/09 14:23:50;;;;;;;1.43;1.43;;;;;;;;;;5055455;28;20414;-70
2022/08/09 14:26:16;;;;;;;1.07;1.07;;;;;;;;;;5055205;28;20505;-72
2022/08/09 14:28:42;;;;;;;1.50;1.40;;;;;;;;;;5055443;28;20442;-73
2022/08/09 14:31:08;;;;;;;1.00;1.00;;;;;;;;;;5054773;28;20426;-71
2022/08/09 14:33:34;;;;;;;1.00;1.00;;;;;;;;;;5054903;28;20427;-72
2022/08/09 14:36:00;;;;;;;2.10;0.93;;;;;;;;;;5055053;28;20418;-71
2022/08/09 14:38:26;;;;;;;6.30;0.97;;;;;;;;;;5054643;28;20446;-71
2022/08/09 14:40:52;;;;;;;1.13;1.13;;;;;;;;;;5055044;28;20521;-72
2022/08/09 14:43:18;;;;;;;1.00;1.00;;;;;;;;;;5054646;28;20418;-71
2022/08/09 14:45:44;;;;;;;1.13;1.13;;;;;;;;;;5054633;28;20821;-72